sensor_id;sensor_type;location;lat;lon;timestamp;pressure;altitude;pressure_sealevel;temperature;humidity
66945;BME280;53853;51.982;5.928;2023-04-21T00:00:15;101505.88;;;9.86;69.33
66945;BME280;53853;51.982;5.928;2023-04-21T00:02:45;101503.34;;;9.85;69.91
66945;BME280;53853;51.982;5.928;2023-04-21T00:05:18;101497.19;;;9.84;69.96
66945;BME280;53853;51.982;5.928;2023-04-21T00:07:48;101490.28;;;9.82;71.52
66945;BME280;53853;51.982;5.928;2023-04-21T00:10:18;101494.06;;;9.79;72.36
66945;BME280;53853;51.982;5.928;2023-04-21T00:12:48;101494.91;;;9.79;71.98
66945;BME280;53853;51.982;5.928;2023-04-21T00:15:18;101494.06;;;9.79;72.39
66945;BME280;53853;51.982;5.928;2023-04-21T00:17:47;101481.84;;;9.76;73.38
66945;BME280;53853;51.982;5.928;2023-04-21T00:20:20;101473.88;;;9.76;72.84
66945;BME280;53853;51.982;5.928;2023-04-21T00:22:52;101480.31;;;9.74;74.48
66945;BME280;53853;51.982;5.928;2023-04-21T00:25:22;101472.34;;;9.74;75.18
66945;BME280;53853;51.982;5.928;2023-04-21T00:27:52;101475.69;;;9.76;74.07
66945;BME280;53853;51.982;5.928;2023-04-21T00:30:22;101472.34;;;9.74;74.11
66945;BME280;53853;51.982;5.928;2023-04-21T00:32:52;101460.81;;;9.73;73.86
66945;BME280;53853;51.982;5.928;2023-04-21T00:35:25;101451.88;;;9.74;72.90
66945;BME280;53853;51.982;5.928;2023-04-21T00:37:55;101458.41;;;9.70;73.72
66945;BME280;53853;51.982;5.928;2023-04-21T00:40:25;101457.69;;;9.68;73.93
66945;BME280;53853;51.982;5.928;2023-04-21T00:42:55;101453.22;;;9.69;73.40
66945;BME280;53853;51.982;5.928;2023-04-21T00:45:25;101453.59;;;9.64;75.66
66945;BME280;53853;51.982;5.928;2023-04-21T00:47:56;101454.72;;;9.61;75.64
66945;BME280;53853;51.982;5.928;2023-04-21T00:50:29;101442.38;;;9.60;77.34
66945;BME280;53853;51.982;5.928;2023-04-21T00:52:59;101441.66;;;9.58;77.34
66945;BME280;53853;51.982;5.928;2023-04-21T00:55:30;101437.88;;;9.61;77.79
66945;BME280;53853;51.982;5.928;2023-04-21T00:58:00;101437.06;;;9.60;78.26
66945;BME280;53853;51.982;5.928;2023-04-21T01:00:31;101428.94;;;9.62;78.94
66945;BME280;53853;51.982;5.928;2023-04-21T01:03:04;101427.13;;;9.63;78.62
66945;BME280;53853;51.982;5.928;2023-04-21T01:05:37;101429.47;;;9.56;79.40
66945;BME280;53853;51.982;5.928;2023-04-21T01:08:08;101419.94;;;9.53;80.57
66945;BME280;53853;51.982;5.928;2023-04-21T01:10:38;101417.28;;;9.53;81.28
66945;BME280;53853;51.982;5.928;2023-04-21T01:13:08;101411.81;;;9.55;81.03
66945;BME280;53853;51.982;5.928;2023-04-21T01:15:37;101415.94;;;9.48;81.37
66945;BME280;53853;51.982;5.928;2023-04-21T01:18:07;101413.28;;;9.48;82.36
66945;BME280;53853;51.982;5.928;2023-04-21T01:20:40;101412.34;;;9.49;83.37
66945;BME280;53853;51.982;5.928;2023-04-21T01:23:13;101407.84;;;9.49;83.51
66945;BME280;53853;51.982;5.928;2023-04-21T01:25:44;101409.66;;;9.49;84.06
66945;BME280;53853;51.982;5.928;2023-04-21T01:28:14;101405.44;;;9.46;84.00
66945;BME280;53853;51.982;5.928;2023-04-21T01:30:43;101407.97;;;9.48;84.46
66945;BME280;53853;51.982;5.928;2023-04-21T01:33:13;101405.88;;;9.51;84.48
66945;BME280;53853;51.982;5.928;2023-04-21T01:35:44;101409.41;;;9.52;84.76
66945;BME280;53853;51.982;5.928;2023-04-21T01:38:16;101404.53;;;9.57;85.04
66945;BME280;53853;51.982;5.928;2023-04-21T01:40:49;101409.59;;;9.60;84.98
66945;BME280;53853;51.982;5.928;2023-04-21T01:43:21;101410.56;;;9.59;84.74
66945;BME280;53853;51.982;5.928;2023-04-21T01:45:51;101420.97;;;9.62;84.69
66945;BME280;53853;51.982;5.928;2023-04-21T01:48:21;101411.03;;;9.64;84.86
66945;BME280;53853;51.982;5.928;2023-04-21T01:50:51;101407.41;;;9.65;85.21
66945;BME280;53853;51.982;5.928;2023-04-21T01:53:23;101410.75;;;9.67;85.00
66945;BME280;53853;51.982;5.928;2023-04-21T01:55:53;101417.22;;;9.65;84.77
66945;BME280;53853;51.982;5.928;2023-04-21T01:58:23;101402.06;;;9.65;84.83
66945;BME280;53853;51.982;5.928;2023-04-21T02:00:53;101401.69;;;9.70;84.91
66945;BME280;53853;51.982;5.928;2023-04-21T02:03:23;101406.19;;;9.69;85.02
66945;BME280;53853;51.982;5.928;2023-04-21T02:05:53;101396.75;;;9.65;85.13
66945;BME280;53853;51.982;5.928;2023-04-21T02:08:25;101397.31;;;9.69;85.03
66945;BME280;53853;51.982;5.928;2023-04-21T02:10:55;101390.22;;;9.69;85.49
66945;BME280;53853;51.982;5.928;2023-04-21T02:13:25;101389.94;;;9.72;85.39
66945;BME280;53853;51.982;5.928;2023-04-21T02:15:55;101400.72;;;9.71;85.36
66945;BME280;53853;51.982;5.928;2023-04-21T02:18:24;101395.41;;;9.71;85.61
66945;BME280;53853;51.982;5.928;2023-04-21T02:20:55;101407.84;;;9.70;85.53
66945;BME280;53853;51.982;5.928;2023-04-21T02:23:29;101395.41;;;9.71;85.70
66945;BME280;53853;51.982;5.928;2023-04-21T02:25:59;101396.22;;;9.71;85.73
66945;BME280;53853;51.982;5.928;2023-04-21T02:28:32;101399.03;;;9.70;85.66
66945;BME280;53853;51.982;5.928;2023-04-21T02:31:02;101390.22;;;9.69;85.68
66945;BME280;53853;51.982;5.928;2023-04-21T02:33:34;101387.53;;;9.69;85.75
66945;BME280;53853;51.982;5.928;2023-04-21T02:36:04;101385.84;;;9.68;85.92
66945;BME280;53853;51.982;5.928;2023-04-21T02:38:37;101384.03;;;9.69;85.66
66945;BME280;53853;51.982;5.928;2023-04-21T02:41:10;101368.19;;;9.67;85.78
66945;BME280;53853;51.982;5.928;2023-04-21T02:43:40;101371.84;;;9.66;85.72
66945;BME280;53853;51.982;5.928;2023-04-21T02:46:10;101364.94;;;9.64;85.81
66945;BME280;53853;51.982;5.928;2023-04-21T02:48:40;101371.22;;;9.63;85.98
66945;BME280;53853;51.982;5.928;2023-04-21T02:51:12;101375.84;;;9.60;86.11
66945;BME280;53853;51.982;5.928;2023-04-21T02:53:44;101384.66;;;9.61;86.38
66945;BME280;53853;51.982;5.928;2023-04-21T02:56:14;101380.59;;;9.57;86.04
66945;BME280;53853;51.982;5.928;2023-04-21T02:58:45;101377.81;;;9.58;86.38
66945;BME280;53853;51.982;5.928;2023-04-21T03:01:15;101369.81;;;9.58;86.68
66945;BME280;53853;51.982;5.928;2023-04-21T03:03:45;101369.69;;;9.60;86.58
66945;BME280;53853;51.982;5.928;2023-04-21T03:06:15;101369.81;;;9.58;86.51
66945;BME280;53853;51.982;5.928;2023-04-21T03:08:48;101373.44;;;9.57;86.58
66945;BME280;53853;51.982;5.928;2023-04-21T03:11:18;101372.63;;;9.57;86.65
66945;BME280;53853;51.982;5.928;2023-04-21T03:13:48;101371.66;;;9.58;87.00
66945;BME280;53853;51.982;5.928;2023-04-21T03:16:18;101379.47;;;9.59;87.03
66945;BME280;53853;51.982;5.928;2023-04-21T03:18:48;101364.38;;;9.60;86.68
66945;BME280;53853;51.982;5.928;2023-04-21T03:21:18;101370.41;;;9.62;86.88
66945;BME280;53853;51.982;5.928;2023-04-21T03:23:52;101357.78;;;9.64;87.16
66945;BME280;53853;51.982;5.928;2023-04-21T03:26:22;101359.75;;;9.62;86.83
66945;BME280;53853;51.982;5.928;2023-04-21T03:28:52;101365.34;;;9.59;86.93
66945;BME280;53853;51.982;5.928;2023-04-21T03:31:21;101366.03;;;9.61;87.00
66945;BME280;53853;51.982;5.928;2023-04-21T03:33:51;101358.91;;;9.61;87.13
66945;BME280;53853;51.982;5.928;2023-04-21T03:36:21;101352.28;;;9.56;87.06
66945;BME280;53853;51.982;5.928;2023-04-21T03:38:54;101349.63;;;9.56;87.16
66945;BME280;53853;51.982;5.928;2023-04-21T03:41:24;101344.31;;;9.56;87.23
66945;BME280;53853;51.982;5.928;2023-04-21T03:43:54;101360.84;;;9.59;87.41
66945;BME280;53853;51.982;5.928;2023-04-21T03:46:24;101355.69;;;9.58;87.21
66945;BME280;53853;51.982;5.928;2023-04-21T03:48:54;101357.63;;;9.56;86.97
66945;BME280;53853;51.982;5.928;2023-04-21T03:51:23;101361.00;;;9.58;87.27
66945;BME280;53853;51.982;5.928;2023-04-21T03:53:56;101357.34;;;9.59;87.20
66945;BME280;53853;51.982;5.928;2023-04-21T03:56:26;101353.03;;;9.58;87.20
66945;BME280;53853;51.982;5.928;2023-04-21T03:58:56;101355.41;;;9.61;87.32
66945;BME280;53853;51.982;5.928;2023-04-21T04:01:26;101351.78;;;9.62;87.48
66945;BME280;53853;51.982;5.928;2023-04-21T04:03:57;101354.44;;;9.62;87.17
66945;BME280;53853;51.982;5.928;2023-04-21T04:06:26;101348.00;;;9.65;87.56
66945;BME280;53853;51.982;5.928;2023-04-21T04:09:00;101347.16;;;9.64;87.33
66945;BME280;53853;51.982;5.928;2023-04-21T04:11:30;101355.13;;;9.64;87.25
66945;BME280;53853;51.982;5.928;2023-04-21T04:14:00;101347.16;;;9.64;86.99
66945;BME280;53853;51.982;5.928;2023-04-21T04:16:30;101349.56;;;9.67;87.36
66945;BME280;53853;51.982;5.928;2023-04-21T04:19:02;101347.63;;;9.69;87.17
66945;BME280;53853;51.982;5.928;2023-04-21T04:21:32;101351.38;;;9.67;86.68
66945;BME280;53853;51.982;5.928;2023-04-21T04:24:04;101353.22;;;9.66;87.05
66945;BME280;53853;51.982;5.928;2023-04-21T04:26:34;101339.63;;;9.69;87.14
66945;BME280;53853;51.982;5.928;2023-04-21T04:29:04;101337.69;;;9.71;87.46
66945;BME280;53853;51.982;5.928;2023-04-21T04:31:36;101338.66;;;9.70;87.06
66945;BME280;53853;51.982;5.928;2023-04-21T04:34:06;101336.72;;;9.72;87.22
66945;BME280;53853;51.982;5.928;2023-04-21T04:36:37;101337.69;;;9.71;87.17
66945;BME280;53853;51.982;5.928;2023-04-21T04:39:10;101332.34;;;9.71;87.31
66945;BME280;53853;51.982;5.928;2023-04-21T04:41:40;101328.13;;;9.69;86.98
66945;BME280;53853;51.982;5.928;2023-04-21T04:44:10;101339.38;;;9.72;87.29
66945;BME280;53853;51.982;5.928;2023-04-21T04:46:42;101339.38;;;9.72;87.29
66945;BME280;53853;51.982;5.928;2023-04-21T04:49:12;101329.44;;;9.74;87.53
66945;BME280;53853;51.982;5.928;2023-04-21T04:51:41;101325.69;;;9.77;87.77
66945;BME280;53853;51.982;5.928;2023-04-21T04:54:14;101333.50;;;9.78;87.60
66945;BME280;53853;51.982;5.928;2023-04-21T04:56:44;101336.31;;;9.77;87.53
66945;BME280;53853;51.982;5.928;2023-04-21T04:59:14;101338.00;;;9.78;87.64
66945;BME280;53853;51.982;5.928;2023-04-21T05:01:44;101342.47;;;9.77;87.72
66945;BME280;53853;51.982;5.928;2023-04-21T05:04:13;101348.63;;;9.78;87.58
66945;BME280;53853;51.982;5.928;2023-04-21T05:06:44;101347.81;;;9.77;87.41
66945;BME280;53853;51.982;5.928;2023-04-21T05:09:17;101348.38;;;9.81;87.42
66945;BME280;53853;51.982;5.928;2023-04-21T05:11:46;101348.38;;;9.81;87.38
66945;BME280;53853;51.982;5.928;2023-04-21T05:14:16;101337.59;;;9.83;87.62
66945;BME280;53853;51.982;5.928;2023-04-21T05:16:46;101339.03;;;9.87;87.48
66945;BME280;53853;51.982;5.928;2023-04-21T05:19:16;101349.81;;;9.85;87.40
66945;BME280;53853;51.982;5.928;2023-04-21T05:21:46;101350.63;;;9.86;87.18
66945;BME280;53853;51.982;5.928;2023-04-21T05:24:19;101360.47;;;9.85;87.05
66945;BME280;53853;51.982;5.928;2023-04-21T05:26:50;101371.69;;;9.89;87.19
66945;BME280;53853;51.982;5.928;2023-04-21T05:29:20;101369.72;;;9.91;87.45
66945;BME280;53853;51.982;5.928;2023-04-21T05:31:49;101368.88;;;9.90;87.34
66945;BME280;53853;51.982;5.928;2023-04-21T05:34:19;101373.09;;;9.93;87.41
66945;BME280;53853;51.982;5.928;2023-04-21T05:36:49;101374.66;;;9.95;87.36
66945;BME280;53853;51.982;5.928;2023-04-21T05:39:21;101377.03;;;9.98;87.69
66945;BME280;53853;51.982;5.928;2023-04-21T05:41:51;101379.56;;;10.00;87.44
66945;BME280;53853;51.982;5.928;2023-04-21T05:44:21;101377.03;;;9.98;87.03
66945;BME280;53853;51.982;5.928;2023-04-21T05:46:51;101378.59;;;10.01;87.61
66945;BME280;53853;51.982;5.928;2023-04-21T05:49:21;101380.41;;;10.01;87.54
66945;BME280;53853;51.982;5.928;2023-04-21T05:51:51;101382.66;;;10.05;87.85
66945;BME280;53853;51.982;5.928;2023-04-21T05:54:23;101375.41;;;10.07;87.40
66945;BME280;53853;51.982;5.928;2023-04-21T05:56:53;101380.47;;;10.10;87.48
66945;BME280;53853;51.982;5.928;2023-04-21T05:59:23;101375.72;;;10.14;87.63
66945;BME280;53853;51.982;5.928;2023-04-21T06:01:53;101379.22;;;10.14;87.29
66945;BME280;53853;51.982;5.928;2023-04-21T06:04:23;101374.31;;;10.20;87.87
66945;BME280;53853;51.982;5.928;2023-04-21T06:06:53;101364.97;;;10.25;88.23
66945;BME280;53853;51.982;5.928;2023-04-21T06:09:25;101373.25;;;10.32;88.44
66945;BME280;53853;51.982;5.928;2023-04-21T06:11:55;101373.72;;;10.37;88.13
66945;BME280;53853;51.982;5.928;2023-04-21T06:14:25;101373.44;;;10.40;88.07
66945;BME280;53853;51.982;5.928;2023-04-21T06:16:55;101374.19;;;10.42;87.95
66945;BME280;53853;51.982;5.928;2023-04-21T06:19:26;101364.22;;;10.44;87.74
66945;BME280;53853;51.982;5.928;2023-04-21T06:21:56;101370.97;;;10.48;87.34
66945;BME280;53853;51.982;5.928;2023-04-21T06:24:31;101361.56;;;10.54;87.97
66945;BME280;53853;51.982;5.928;2023-04-21T06:27:01;101357.94;;;10.55;87.13
66945;BME280;53853;51.982;5.928;2023-04-21T06:29:31;101363.56;;;10.62;87.60
66945;BME280;53853;51.982;5.928;2023-04-21T06:32:00;101361.84;;;10.61;86.70
66945;BME280;53853;51.982;5.928;2023-04-21T06:34:30;101352.91;;;10.62;86.98
66945;BME280;53853;51.982;5.928;2023-04-21T06:37:00;101354.19;;;10.67;87.69
66945;BME280;53853;51.982;5.928;2023-04-21T06:39:33;101362.47;;;10.74;87.71
66945;BME280;53853;51.982;5.928;2023-04-21T06:42:02;101367.94;;;10.82;87.75
66945;BME280;53853;51.982;5.928;2023-04-21T06:44:42;101369.50;;;10.95;88.26
66945;BME280;53853;51.982;5.928;2023-04-21T06:47:12;101367.53;;;11.06;88.61
66945;BME280;53853;51.982;5.928;2023-04-21T06:49:42;101363.34;;;11.14;88.15
66945;BME280;53853;51.982;5.928;2023-04-21T06:52:12;101358.56;;;11.17;87.98
66945;BME280;53853;51.982;5.928;2023-04-21T06:54:44;101356.44;;;11.21;87.81
66945;BME280;53853;51.982;5.928;2023-04-21T06:57:14;101349.44;;;11.20;87.18
66945;BME280;53853;51.982;5.928;2023-04-21T06:59:44;101352.38;;;11.27;87.93
66945;BME280;53853;51.982;5.928;2023-04-21T07:02:14;101359.41;;;11.28;87.28
66945;BME280;53853;51.982;5.928;2023-04-21T07:04:44;101355.72;;;11.29;87.51
66945;BME280;53853;51.982;5.928;2023-04-21T07:07:13;101354.06;;;11.28;87.00
66945;BME280;53853;51.982;5.928;2023-04-21T07:09:46;101359.94;;;11.31;87.68
66945;BME280;53853;51.982;5.928;2023-04-21T07:12:16;101358.81;;;11.34;87.60
66945;BME280;53853;51.982;5.928;2023-04-21T07:14:46;101364.00;;;11.26;85.42
66945;BME280;53853;51.982;5.928;2023-04-21T07:17:15;101368.09;;;11.30;86.07
66945;BME280;53853;51.982;5.928;2023-04-21T07:19:48;101367.53;;;11.36;85.83
66945;BME280;53853;51.982;5.928;2023-04-21T07:22:18;101372.31;;;11.42;86.49
66945;BME280;53853;51.982;5.928;2023-04-21T07:24:51;101365.53;;;11.48;86.71
66945;BME280;53853;51.982;5.928;2023-04-21T07:27:20;101362.16;;;11.55;87.01
66945;BME280;53853;51.982;5.928;2023-04-21T07:29:50;101358.91;;;11.62;86.54
66945;BME280;53853;51.982;5.928;2023-04-21T07:32:20;101364.09;;;11.73;86.84
66945;BME280;53853;51.982;5.928;2023-04-21T07:34:50;101369.81;;;11.78;85.71
66945;BME280;53853;51.982;5.928;2023-04-21T07:37:20;101359.97;;;11.88;86.83
66945;BME280;53853;51.982;5.928;2023-04-21T07:39:53;101354.09;;;11.85;84.11
66945;BME280;53853;51.982;5.928;2023-04-21T07:42:22;101362.34;;;11.91;85.13
66945;BME280;53853;51.982;5.928;2023-04-21T07:44:53;101377.22;;;12.04;85.67
66945;BME280;53853;51.982;5.928;2023-04-21T07:47:23;101366.66;;;12.12;86.03
66945;BME280;53853;51.982;5.928;2023-04-21T07:49:53;101367.91;;;12.18;86.18
66945;BME280;53853;51.982;5.928;2023-04-21T07:52:23;101364.09;;;12.20;84.84
66945;BME280;53853;51.982;5.928;2023-04-21T07:54:55;101364.88;;;12.30;85.23
66945;BME280;53853;51.982;5.928;2023-04-21T07:57:25;101360.25;;;12.32;84.11
66945;BME280;53853;51.982;5.928;2023-04-21T07:59:57;101357.00;;;12.29;83.06
66945;BME280;53853;51.982;5.928;2023-04-21T08:02:27;101358.25;;;12.35;84.18
66945;BME280;53853;51.982;5.928;2023-04-21T08:04:57;101350.41;;;12.33;83.15
66945;BME280;53853;51.982;5.928;2023-04-21T08:07:27;101353.75;;;12.35;83.67
66945;BME280;53853;51.982;5.928;2023-04-21T08:10:00;101361.16;;;12.41;84.47
66945;BME280;53853;51.982;5.928;2023-04-21T08:12:30;101359.91;;;12.45;84.04
66945;BME280;53853;51.982;5.928;2023-04-21T08:14:59;101350.56;;;12.49;83.98
66945;BME280;53853;51.982;5.928;2023-04-21T08:17:33;101362.38;;;12.57;83.49
66945;BME280;53853;51.982;5.928;2023-04-21T08:20:04;101357.25;;;12.63;83.52
66945;BME280;53853;51.982;5.928;2023-04-21T08:22:35;101364.53;;;12.71;82.82
66945;BME280;53853;51.982;5.928;2023-04-21T08:25:08;101355.75;;;12.79;83.26
66945;BME280;53853;51.982;5.928;2023-04-21T08:27:38;101355.13;;;12.85;83.15
66945;BME280;53853;51.982;5.928;2023-04-21T08:30:10;101354.22;;;12.94;83.42
66945;BME280;53853;51.982;5.928;2023-04-21T08:32:40;101360.50;;;12.85;78.17
66945;BME280;53853;51.982;5.928;2023-04-21T08:35:10;101356.94;;;12.84;78.62
66945;BME280;53853;51.982;5.928;2023-04-21T08:37:40;101366.22;;;12.90;80.07
66945;BME280;53853;51.982;5.928;2023-04-21T08:40:14;101355.59;;;12.98;81.01
66945;BME280;53853;51.982;5.928;2023-04-21T08:42:44;101361.16;;;13.05;80.86
66945;BME280;53853;51.982;5.928;2023-04-21T08:45:14;101364.16;;;13.20;82.22
66945;BME280;53853;51.982;5.928;2023-04-21T08:47:44;101359.53;;;13.30;81.43
66945;BME280;53853;51.982;5.928;2023-04-21T08:50:15;101362.63;;;13.35;79.55
66945;BME280;53853;51.982;5.928;2023-04-21T08:52:45;101364.22;;;13.46;81.12
66945;BME280;53853;51.982;5.928;2023-04-21T08:55:18;101366.44;;;13.51;80.09
66945;BME280;53853;51.982;5.928;2023-04-21T08:57:49;101358.09;;;13.54;79.83
66945;BME280;53853;51.982;5.928;2023-04-21T09:00:19;101360.13;;;13.60;80.17
66945;BME280;53853;51.982;5.928;2023-04-21T09:02:53;101349.63;;;13.67;79.70
66945;BME280;53853;51.982;5.928;2023-04-21T09:05:25;101354.50;;;13.71;80.07
66945;BME280;53853;51.982;5.928;2023-04-21T09:08:07;101355.09;;;13.83;80.33
66945;BME280;53853;51.982;5.928;2023-04-21T09:10:48;101361.69;;;13.97;80.53
66945;BME280;53853;51.982;5.928;2023-04-21T09:13:19;101361.59;;;14.07;80.73
66945;BME280;53853;51.982;5.928;2023-04-21T09:15:50;101359.09;;;14.13;80.72
66945;BME280;53853;51.982;5.928;2023-04-21T09:18:20;101361.47;;;14.17;79.13
66945;BME280;53853;51.982;5.928;2023-04-21T09:20:53;101364.97;;;14.17;78.22
66945;BME280;53853;51.982;5.928;2023-04-21T09:23:42;101358.63;;;14.18;78.36
66945;BME280;53853;51.982;5.928;2023-04-21T09:26:16;101355.56;;;14.13;77.14
66945;BME280;53853;51.982;5.928;2023-04-21T09:28:48;101353.44;;;14.17;78.62
66945;BME280;53853;51.982;5.928;2023-04-21T09:31:19;101358.09;;;14.14;76.69
66945;BME280;53853;51.982;5.928;2023-04-21T09:33:53;101344.22;;;14.19;nan
66945;BME280;53853;51.982;5.928;2023-04-21T09:36:24;101344.75;;;14.23;77.41
66945;BME280;53853;51.982;5.928;2023-04-21T09:38:55;101351.63;;;14.34;79.18
66945;BME280;53853;51.982;5.928;2023-04-21T09:41:30;101350.81;;;14.41;79.30
66945;BME280;53853;51.982;5.928;2023-04-21T09:44:00;101354.56;;;14.48;79.10
66945;BME280;53853;51.982;5.928;2023-04-21T09:46:33;101336.44;;;14.50;78.61
66945;BME280;53853;51.982;5.928;2023-04-21T09:49:03;101341.13;;;14.48;77.71
66945;BME280;53853;51.982;5.928;2023-04-21T09:51:34;101347.50;;;14.47;77.17
66945;BME280;53853;51.982;5.928;2023-04-21T09:54:11;101348.69;;;14.45;76.52
66945;BME280;53853;51.982;5.928;2023-04-21T09:56:49;101344.00;;;14.47;75.14
66945;BME280;53853;51.982;5.928;2023-04-21T09:59:25;101334.97;;;14.56;76.59
66945;BME280;53853;51.982;5.928;2023-04-21T10:01:58;101335.84;;;14.65;77.10
66945;BME280;53853;51.982;5.928;2023-04-21T10:04:29;101333.88;;;14.75;77.56
66945;BME280;53853;51.982;5.928;2023-04-21T10:07:00;101328.00;;;14.88;77.80
66945;BME280;53853;51.982;5.928;2023-04-21T10:09:34;101322.13;;;15.01;79.09
66945;BME280;53853;51.982;5.928;2023-04-21T10:12:09;101320.97;;;15.12;77.46
66945;BME280;53853;51.982;5.928;2023-04-21T10:14:40;101318.94;;;15.14;75.55
66945;BME280;53853;51.982;5.928;2023-04-21T10:17:10;101312.75;;;15.13;75.42
66945;BME280;53853;51.982;5.928;2023-04-21T10:19:48;101308.38;;;15.04;70.55
66945;BME280;53853;51.982;5.928;2023-04-21T10:22:29;101315.78;;;15.10;73.37
66945;BME280;53853;51.982;5.928;2023-04-21T10:25:00;101320.47;;;15.16;72.36
66945;BME280;53853;51.982;5.928;2023-04-21T10:27:34;101306.19;;;15.24;72.65
66945;BME280;53853;51.982;5.928;2023-04-21T10:30:23;101311.72;;;15.31;71.04
66945;BME280;53853;51.982;5.928;2023-04-21T10:33:02;101307.31;;;15.46;74.46
66945;BME280;53853;51.982;5.928;2023-04-21T10:35:59;101308.47;;;15.60;73.42
66945;BME280;53853;51.982;5.928;2023-04-21T10:38:34;101307.28;;;15.71;74.75
66945;BME280;53853;51.982;5.928;2023-04-21T10:41:25;101311.28;;;15.91;70.18
66945;BME280;53853;51.982;5.928;2023-04-21T10:44:00;101314.06;;;16.06;73.24
66945;BME280;53853;51.982;5.928;2023-04-21T10:46:34;101313.38;;;16.12;69.95
66945;BME280;53853;51.982;5.928;2023-04-21T10:49:05;101302.34;;;15.99;66.24
66945;BME280;53853;51.982;5.928;2023-04-21T10:52:05;101300.53;;;15.91;69.52
66945;BME280;53853;51.982;5.928;2023-04-21T10:54:43;101289.75;;;16.00;70.86
66945;BME280;53853;51.982;5.928;2023-04-21T10:57:33;101291.31;;;15.94;68.52
66945;BME280;53853;51.982;5.928;2023-04-21T11:00:08;101294.13;;;16.01;70.40
66945;BME280;53853;51.982;5.928;2023-04-21T11:02:38;101298.16;;;15.97;70.00
66945;BME280;53853;51.982;5.928;2023-04-21T11:05:09;101292.31;;;15.93;70.07
66945;BME280;53853;51.982;5.928;2023-04-21T11:07:39;101297.19;;;15.81;67.73
66945;BME280;53853;51.982;5.928;2023-04-21T11:10:09;101290.16;;;15.80;69.89
66945;BME280;53853;51.982;5.928;2023-04-21T11:12:40;101280.06;;;15.74;67.71
66945;BME280;53853;51.982;5.928;2023-04-21T11:15:14;101281.09;;;15.65;68.54
66945;BME280;53853;51.982;5.928;2023-04-21T11:17:45;101272.00;;;15.74;71.72
66945;BME280;53853;51.982;5.928;2023-04-21T11:20:15;101272.22;;;15.64;67.84
66945;BME280;53853;51.982;5.928;2023-04-21T11:22:45;101270.84;;;15.68;68.60
66945;BME280;53853;51.982;5.928;2023-04-21T11:25:18;101267.47;;;15.83;70.75
66945;BME280;53853;51.982;5.928;2023-04-21T11:27:54;101264.56;;;16.01;70.87
66945;BME280;53853;51.982;5.928;2023-04-21T11:30:33;101264.44;;;16.17;71.61
66945;BME280;53853;51.982;5.928;2023-04-21T11:33:03;101268.72;;;16.35;73.47
66945;BME280;53853;51.982;5.928;2023-04-21T11:35:33;101250.09;;;16.56;74.49
66945;BME280;53853;51.982;5.928;2023-04-21T11:38:04;101250.81;;;16.73;70.45
66945;BME280;53853;51.982;5.928;2023-04-21T11:40:45;101250.75;;;16.58;65.40
66945;BME280;53853;51.982;5.928;2023-04-21T11:43:15;101243.03;;;16.55;66.62
66945;BME280;53853;51.982;5.928;2023-04-21T11:45:50;101234.91;;;16.63;69.33
66945;BME280;53853;51.982;5.928;2023-04-21T11:48:20;101227.13;;;16.69;69.00
66945;BME280;53853;51.982;5.928;2023-04-21T11:50:50;101221.56;;;16.70;67.90
66945;BME280;53853;51.982;5.928;2023-04-21T11:53:20;101215.75;;;16.81;69.96
66945;BME280;53853;51.982;5.928;2023-04-21T11:55:50;101211.25;;;16.97;70.94
66945;BME280;53853;51.982;5.928;2023-04-21T11:58:22;101210.25;;;17.13;68.97
66945;BME280;53853;51.982;5.928;2023-04-21T12:00:54;101194.88;;;17.07;65.95
66945;BME280;53853;51.982;5.928;2023-04-21T12:03:25;101206.53;;;16.99;66.31
66945;BME280;53853;51.982;5.928;2023-04-21T12:05:56;101209.88;;;17.01;67.98
66945;BME280;53853;51.982;5.928;2023-04-21T12:08:29;101204.88;;;17.13;70.11
66945;BME280;53853;51.982;5.928;2023-04-21T12:11:01;101214.00;;;17.12;65.36
66945;BME280;53853;51.982;5.928;2023-04-21T12:13:31;101213.72;;;17.07;66.30
66945;BME280;53853;51.982;5.928;2023-04-21T12:16:05;101211.94;;;17.14;66.93
66945;BME280;53853;51.982;5.928;2023-04-21T12:18:35;101210.19;;;17.21;65.17
66945;BME280;53853;51.982;5.928;2023-04-21T12:21:05;101205.63;;;17.07;63.94
66945;BME280;53853;51.982;5.928;2023-04-21T12:23:35;101209.31;;;16.91;64.25
66945;BME280;53853;51.982;5.928;2023-04-21T12:26:05;101209.22;;;16.76;64.05
66945;BME280;53853;51.982;5.928;2023-04-21T12:28:35;101202.16;;;16.75;67.34
66945;BME280;53853;51.982;5.928;2023-04-21T12:31:07;101195.03;;;16.67;65.56
66945;BME280;53853;51.982;5.928;2023-04-21T12:33:37;101187.84;;;16.59;64.73
66945;BME280;53853;51.982;5.928;2023-04-21T12:36:08;101181.84;;;16.72;66.95
66945;BME280;53853;51.982;5.928;2023-04-21T12:38:38;101174.53;;;16.81;66.25
66945;BME280;53853;51.982;5.928;2023-04-21T12:41:09;101166.94;;;16.84;64.45
66945;BME280;53853;51.982;5.928;2023-04-21T12:43:38;101167.66;;;16.78;62.72
66945;BME280;53853;51.982;5.928;2023-04-21T12:46:11;101173.81;;;16.87;66.16
66945;BME280;53853;51.982;5.928;2023-04-21T12:48:41;101175.03;;;16.84;63.73
66945;BME280;53853;51.982;5.928;2023-04-21T12:51:11;101171.81;;;16.89;65.74
66945;BME280;53853;51.982;5.928;2023-04-21T12:53:41;101160.09;;;16.97;66.85
66945;BME280;53853;51.982;5.928;2023-04-21T12:56:11;101153.44;;;17.08;66.45
66945;BME280;53853;51.982;5.928;2023-04-21T12:58:40;101144.25;;;17.17;68.68
66945;BME280;53853;51.982;5.928;2023-04-21T13:01:13;101139.88;;;17.31;69.25
66945;BME280;53853;51.982;5.928;2023-04-21T13:03:43;101132.25;;;17.34;65.58
66945;BME280;53853;51.982;5.928;2023-04-21T13:06:13;101119.22;;;17.38;65.24
66945;BME280;53853;51.982;5.928;2023-04-21T13:08:42;101119.03;;;17.39;64.17
66945;BME280;53853;51.982;5.928;2023-04-21T13:11:12;101114.69;;;17.38;61.38
66945;BME280;53853;51.982;5.928;2023-04-21T13:13:42;101107.81;;;17.36;62.89
66945;BME280;53853;51.982;5.928;2023-04-21T13:16:15;101105.75;;;17.38;60.42